sensor_id;sensor_type;location;lat;lon;timestamp;temperature;humidity
69084;SHT31;56185;48.526;9.044;2023-07-09T00:02:00;22.98;60.55
69084;SHT31;56185;48.526;9.044;2023-07-09T00:04:25;23.04;59.41
69084;SHT31;56185;48.526;9.044;2023-07-09T00:06:51;22.86;60.11
69084;SHT31;56185;48.526;9.044;2023-07-09T00:09:19;22.95;60.37
69084;SHT31;56185;48.526;9.044;2023-07-09T00:11:45;22.65;60.95
69084;SHT31;56185;48.526;9.044;2023-07-09T00:14:11;22.51;60.65
69084;SHT31;56185;48.526;9.044;2023-07-09T00:16:38;22.51;61.00
69084;SHT31;56185;48.526;9.044;2023-07-09T00:19:07;22.49;60.88
69084;SHT31;56185;48.526;9.044;2023-07-09T00:21:35;22.31;61.59
69084;SHT31;56185;48.526;9.044;2023-07-09T00:24:01;22.35;61.94
69084;SHT31;56185;48.526;9.044;2023-07-09T00:26:26;22.41;62.20
69084;SHT31;56185;48.526;9.044;2023-07-09T00:28:51;22.51;61.33
69084;SHT31;56185;48.526;9.044;2023-07-09T00:31:17;22.45;60.97
69084;SHT31;56185;48.526;9.044;2023-07-09T00:33:42;22.32;61.73
69084;SHT31;56185;48.526;9.044;2023-07-09T00:36:15;22.24;61.44
69084;SHT31;56185;48.526;9.044;2023-07-09T00:38:40;22.05;61.71
69084;SHT31;56185;48.526;9.044;2023-07-09T00:41:13;21.82;62.20
69084;SHT31;56185;48.526;9.044;2023-07-09T00:43:39;21.84;62.60
69084;SHT31;56185;48.526;9.044;2023-07-09T00:48:44;22.01;61.78
69084;SHT31;56185;48.526;9.044;2023-07-09T00:51:15;22.08;61.37
69084;SHT31;56185;48.526;9.044;2023-07-09T00:53:44;22.00;61.82
69084;SHT31;56185;48.526;9.044;2023-07-09T00:56:12;21.87;62.58
69084;SHT31;56185;48.526;9.044;2023-07-09T00:58:38;21.72;63.21
69084;SHT31;56185;48.526;9.044;2023-07-09T01:01:09;21.64;63.02
69084;SHT31;56185;48.526;9.044;2023-07-09T01:03:39;21.64;63.21
69084;SHT31;56185;48.526;9.044;2023-07-09T01:06:05;21.55;63.16
69084;SHT31;56185;48.526;9.044;2023-07-09T01:08:32;21.72;63.31
69084;SHT31;56185;48.526;9.044;2023-07-09T01:10:58;21.76;62.86
69084;SHT31;56185;48.526;9.044;2023-07-09T01:13:24;21.82;62.68
69084;SHT31;56185;48.526;9.044;2023-07-09T01:15:50;21.67;63.37
69084;SHT31;56185;48.526;9.044;2023-07-09T01:18:15;21.59;63.85
69084;SHT31;56185;48.526;9.044;2023-07-09T01:20:41;21.62;63.54
69084;SHT31;56185;48.526;9.044;2023-07-09T01:23:07;21.69;63.35
69084;SHT31;56185;48.526;9.044;2023-07-09T01:25:33;21.57;63.53
69084;SHT31;56185;48.526;9.044;2023-07-09T01:27:59;21.22;64.29
69084;SHT31;56185;48.526;9.044;2023-07-09T01:30:31;21.11;65.69
69084;SHT31;56185;48.526;9.044;2023-07-09T01:32:59;21.25;64.64
69084;SHT31;56185;48.526;9.044;2023-07-09T01:35:25;21.41;63.93
69084;SHT31;56185;48.526;9.044;2023-07-09T01:37:50;21.47;63.76
69084;SHT31;56185;48.526;9.044;2023-07-09T01:40:19;21.46;63.99
69084;SHT31;56185;48.526;9.044;2023-07-09T01:42:45;21.46;64.12
69084;SHT31;56185;48.526;9.044;2023-07-09T01:45:12;21.29;64.14
69084;SHT31;56185;48.526;9.044;2023-07-09T01:47:38;21.11;64.80
69084;SHT31;56185;48.526;9.044;2023-07-09T01:50:05;21.19;65.25
69084;SHT31;56185;48.526;9.044;2023-07-09T01:52:32;21.26;64.51
69084;SHT31;56185;48.526;9.044;2023-07-09T01:54:58;21.31;64.22
69084;SHT31;56185;48.526;9.044;2023-07-09T01:57:28;21.45;64.06
69084;SHT31;56185;48.526;9.044;2023-07-09T01:59:54;21.35;64.23
69084;SHT31;56185;48.526;9.044;2023-07-09T02:02:23;21.38;64.14
69084;SHT31;56185;48.526;9.044;2023-07-09T02:04:50;21.42;63.70
69084;SHT31;56185;48.526;9.044;2023-07-09T02:07:17;21.33;64.46
69084;SHT31;56185;48.526;9.044;2023-07-09T02:09:42;21.08;65.12
69084;SHT31;56185;48.526;9.044;2023-07-09T02:12:09;20.96;65.51
69084;SHT31;56185;48.526;9.044;2023-07-09T02:14:34;21.02;65.15
69084;SHT31;56185;48.526;9.044;2023-07-09T02:17:00;21.21;64.30
69084;SHT31;56185;48.526;9.044;2023-07-09T02:19:25;21.28;63.89
69084;SHT31;56185;48.526;9.044;2023-07-09T02:21:50;21.15;64.03
69084;SHT31;56185;48.526;9.044;2023-07-09T02:24:15;21.12;64.58
69084;SHT31;56185;48.526;9.044;2023-07-09T02:26:40;20.74;65.46
69084;SHT31;56185;48.526;9.044;2023-07-09T02:29:06;20.68;66.09
69084;SHT31;56185;48.526;9.044;2023-07-09T02:31:31;20.61;66.23
69084;SHT31;56185;48.526;9.044;2023-07-09T02:33:57;20.73;65.59
69084;SHT31;56185;48.526;9.044;2023-07-09T02:36:24;20.60;66.34
69084;SHT31;56185;48.526;9.044;2023-07-09T02:38:49;20.70;65.61
69084;SHT31;56185;48.526;9.044;2023-07-09T02:41:14;20.73;66.10
69084;SHT31;56185;48.526;9.044;2023-07-09T02:43:40;20.58;66.45
69084;SHT31;56185;48.526;9.044;2023-07-09T02:46:05;20.29;67.03
69084;SHT31;56185;48.526;9.044;2023-07-09T02:48:30;20.17;67.43
69084;SHT31;56185;48.526;9.044;2023-07-09T02:50:55;20.04;68.46
69084;SHT31;56185;48.526;9.044;2023-07-09T02:53:21;19.93;68.10
69084;SHT31;56185;48.526;9.044;2023-07-09T02:55:46;19.90;68.60
69084;SHT31;56185;48.526;9.044;2023-07-09T02:58:11;19.83;69.10
69084;SHT31;56185;48.526;9.044;2023-07-09T03:00:36;19.74;69.51
69084;SHT31;56185;48.526;9.044;2023-07-09T03:03:02;19.90;69.30
69084;SHT31;56185;48.526;9.044;2023-07-09T03:05:27;20.13;67.84
69084;SHT31;56185;48.526;9.044;2023-07-09T03:07:52;20.39;67.11
69084;SHT31;56185;48.526;9.044;2023-07-09T03:10:17;20.32;67.10
69084;SHT31;56185;48.526;9.044;2023-07-09T03:12:43;20.13;67.80
69084;SHT31;56185;48.526;9.044;2023-07-09T03:15:08;20.13;67.93
69084;SHT31;56185;48.526;9.044;2023-07-09T03:17:33;20.15;67.30
69084;SHT31;56185;48.526;9.044;2023-07-09T03:19:59;20.26;66.91
69084;SHT31;56185;48.526;9.044;2023-07-09T03:22:24;20.23;67.70
69084;SHT31;56185;48.526;9.044;2023-07-09T03:24:49;20.10;68.01
69084;SHT31;56185;48.526;9.044;2023-07-09T03:27:14;19.92;68.59
69084;SHT31;56185;48.526;9.044;2023-07-09T03:29:40;19.82;68.75
69084;SHT31;56185;48.526;9.044;2023-07-09T03:32:05;20.06;67.77
69084;SHT31;56185;48.526;9.044;2023-07-09T03:34:31;20.09;67.89
69084;SHT31;56185;48.526;9.044;2023-07-09T03:36:56;20.19;67.19
69084;SHT31;56185;48.526;9.044;2023-07-09T03:39:21;20.19;67.45
69084;SHT31;56185;48.526;9.044;2023-07-09T03:41:46;20.12;67.73
69084;SHT31;56185;48.526;9.044;2023-07-09T03:44:12;20.00;68.13
69084;SHT31;56185;48.526;9.044;2023-07-09T03:46:37;19.93;68.18
69084;SHT31;56185;48.526;9.044;2023-07-09T03:49:02;19.78;68.78
69084;SHT31;56185;48.526;9.044;2023-07-09T03:51:27;19.85;68.66
69084;SHT31;56185;48.526;9.044;2023-07-09T03:53:53;19.76;69.12
69084;SHT31;56185;48.526;9.044;2023-07-09T03:56:18;19.82;68.34
69084;SHT31;56185;48.526;9.044;2023-07-09T03:58:43;19.85;68.20
69084;SHT31;56185;48.526;9.044;2023-07-09T04:01:08;19.85;67.93
69084;SHT31;56185;48.526;9.044;2023-07-09T04:03:34;19.88;68.68
69084;SHT31;56185;48.526;9.044;2023-07-09T04:05:59;19.86;68.70
69084;SHT31;56185;48.526;9.044;2023-07-09T04:08:24;20.00;68.10
69084;SHT31;56185;48.526;9.044;2023-07-09T04:10:49;19.96;67.62
69084;SHT31;56185;48.526;9.044;2023-07-09T04:13:15;19.99;67.26
69084;SHT31;56185;48.526;9.044;2023-07-09T04:15:40;19.89;68.13
69084;SHT31;56185;48.526;9.044;2023-07-09T04:18:05;19.99;67.75
69084;SHT31;56185;48.526;9.044;2023-07-09T04:20:31;20.08;67.22
69084;SHT31;56185;48.526;9.044;2023-07-09T04:22:56;20.09;67.24
69084;SHT31;56185;48.526;9.044;2023-07-09T04:25:21;20.12;66.88
69084;SHT31;56185;48.526;9.044;2023-07-09T04:27:46;19.96;67.28
69084;SHT31;56185;48.526;9.044;2023-07-09T04:30:13;20.00;67.31
69084;SHT31;56185;48.526;9.044;2023-07-09T04:32:39;20.08;67.00
69084;SHT31;56185;48.526;9.044;2023-07-09T04:35:04;20.02;67.19
69084;SHT31;56185;48.526;9.044;2023-07-09T04:37:30;20.04;66.79
69084;SHT31;56185;48.526;9.044;2023-07-09T04:39:55;19.89;67.27
69084;SHT31;56185;48.526;9.044;2023-07-09T04:42:20;19.98;67.01
69084;SHT31;56185;48.526;9.044;2023-07-09T04:44:45;19.99;67.33
69084;SHT31;56185;48.526;9.044;2023-07-09T04:47:11;20.06;67.14
69084;SHT31;56185;48.526;9.044;2023-07-09T04:49:36;19.90;68.11
69084;SHT31;56185;48.526;9.044;2023-07-09T04:52:02;19.92;68.35
69084;SHT31;56185;48.526;9.044;2023-07-09T04:54:27;19.99;67.56
69084;SHT31;56185;48.526;9.044;2023-07-09T04:56:53;19.99;68.06
69084;SHT31;56185;48.526;9.044;2023-07-09T04:59:18;20.09;67.46
69084;SHT31;56185;48.526;9.044;2023-07-09T05:01:44;20.13;67.73
69084;SHT31;56185;48.526;9.044;2023-07-09T05:04:09;20.19;67.84
69084;SHT31;56185;48.526;9.044;2023-07-09T05:06:34;20.27;66.78
69084;SHT31;56185;48.526;9.044;2023-07-09T05:09:00;20.29;66.43
69084;SHT31;56185;48.526;9.044;2023-07-09T05:11:25;20.17;67.14
69084;SHT31;56185;48.526;9.044;2023-07-09T05:13:52;20.30;66.81
69084;SHT31;56185;48.526;9.044;2023-07-09T05:16:17;20.54;65.95
69084;SHT31;56185;48.526;9.044;2023-07-09T05:18:44;20.41;66.13
69084;SHT31;56185;48.526;9.044;2023-07-09T05:21:10;20.46;66.55
69084;SHT31;56185;48.526;9.044;2023-07-09T05:23:35;20.43;66.94
69084;SHT31;56185;48.526;9.044;2023-07-09T05:26:02;20.51;66.77
69084;SHT31;56185;48.526;9.044;2023-07-09T05:28:28;20.71;66.02
69084;SHT31;56185;48.526;9.044;2023-07-09T05:30:54;20.74;66.16
69084;SHT31;56185;48.526;9.044;2023-07-09T05:33:20;20.68;66.78
69084;SHT31;56185;48.526;9.044;2023-07-09T05:35:46;20.75;66.72
69084;SHT31;56185;48.526;9.044;2023-07-09T05:38:13;20.80;66.23
69084;SHT31;56185;48.526;9.044;2023-07-09T05:40:38;20.91;66.29
69084;SHT31;56185;48.526;9.044;2023-07-09T05:43:03;21.02;66.12
69084;SHT31;56185;48.526;9.044;2023-07-09T05:45:30;21.14;65.97
69084;SHT31;56185;48.526;9.044;2023-07-09T05:47:58;21.16;65.75
69084;SHT31;56185;48.526;9.044;2023-07-09T05:50:24;21.11;65.10
69084;SHT31;56185;48.526;9.044;2023-07-09T05:52:49;21.16;65.40
69084;SHT31;56185;48.526;9.044;2023-07-09T05:55:15;21.18;65.10
69084;SHT31;56185;48.526;9.044;2023-07-09T05:57:40;21.24;65.68
69084;SHT31;56185;48.526;9.044;2023-07-09T06:00:06;21.36;65.43
69084;SHT31;56185;48.526;9.044;2023-07-09T06:02:31;21.31;65.59
69084;SHT31;56185;48.526;9.044;2023-07-09T06:04:57;21.38;65.40
69084;SHT31;56185;48.526;9.044;2023-07-09T06:07:22;21.43;65.65
69084;SHT31;56185;48.526;9.044;2023-07-09T06:09:47;21.57;65.84
69084;SHT31;56185;48.526;9.044;2023-07-09T06:12:13;21.62;65.37
69084;SHT31;56185;48.526;9.044;2023-07-09T06:14:38;21.63;65.40
69084;SHT31;56185;48.526;9.044;2023-07-09T06:17:04;21.69;65.08
69084;SHT31;56185;48.526;9.044;2023-07-09T06:19:29;21.77;65.43
69084;SHT31;56185;48.526;9.044;2023-07-09T06:21:54;21.87;65.31
69084;SHT31;56185;48.526;9.044;2023-07-09T06:24:20;21.94;64.52
69084;SHT31;56185;48.526;9.044;2023-07-09T06:26:45;21.94;64.31
69084;SHT31;56185;48.526;9.044;2023-07-09T06:29:10;21.92;64.23
69084;SHT31;56185;48.526;9.044;2023-07-09T06:31:35;22.07;64.40
69084;SHT31;56185;48.526;9.044;2023-07-09T06:34:01;22.11;64.11
69084;SHT31;56185;48.526;9.044;2023-07-09T06:36:26;22.24;63.61
69084;SHT31;56185;48.526;9.044;2023-07-09T06:38:51;22.32;63.20
69084;SHT31;56185;48.526;9.044;2023-07-09T06:41:16;22.35;63.22
69084;SHT31;56185;48.526;9.044;2023-07-09T06:43:42;22.47;62.21
69084;SHT31;56185;48.526;9.044;2023-07-09T06:46:11;22.53;61.63
69084;SHT31;56185;48.526;9.044;2023-07-09T06:48:36;22.59;62.04
69084;SHT31;56185;48.526;9.044;2023-07-09T06:51:01;22.66;61.18
69084;SHT31;56185;48.526;9.044;2023-07-09T06:53:28;22.72;60.72
69084;SHT31;56185;48.526;9.044;2023-07-09T06:55:54;22.77;60.90
69084;SHT31;56185;48.526;9.044;2023-07-09T06:58:20;22.82;61.42
69084;SHT31;56185;48.526;9.044;2023-07-09T07:00:49;22.98;60.14
69084;SHT31;56185;48.526;9.044;2023-07-09T07:03:15;23.03;59.63
69084;SHT31;56185;48.526;9.044;2023-07-09T07:05:45;23.13;58.41
69084;SHT31;56185;48.526;9.044;2023-07-09T07:08:10;23.19;59.44
69084;SHT31;56185;48.526;9.044;2023-07-09T07:10:36;23.33;57.21
69084;SHT31;56185;48.526;9.044;2023-07-09T07:13:01;23.47;59.19
69084;SHT31;56185;48.526;9.044;2023-07-09T07:15:26;23.54;59.09
69084;SHT31;56185;48.526;9.044;2023-07-09T07:17:51;23.54;59.65
69084;SHT31;56185;48.526;9.044;2023-07-09T07:20:18;23.55;59.08
69084;SHT31;56185;48.526;9.044;2023-07-09T07:22:43;23.61;60.11
69084;SHT31;56185;48.526;9.044;2023-07-09T07:25:09;23.78;58.02
69084;SHT31;56185;48.526;9.044;2023-07-09T07:27:35;23.88;57.34
69084;SHT31;56185;48.526;9.044;2023-07-09T07:30:01;23.85;58.62
69084;SHT31;56185;48.526;9.044;2023-07-09T07:32:27;24.09;56.94
69084;SHT31;56185;48.526;9.044;2023-07-09T07:34:52;24.06;58.01
69084;SHT31;56185;48.526;9.044;2023-07-09T07:37:18;24.13;57.46
69084;SHT31;56185;48.526;9.044;2023-07-09T07:39:44;24.25;56.89
69084;SHT31;56185;48.526;9.044;2023-07-09T07:42:09;24.33;57.15
69084;SHT31;56185;48.526;9.044;2023-07-09T07:44:34;24.55;55.35
69084;SHT31;56185;48.526;9.044;2023-07-09T07:46:59;24.50;56.22
69084;SHT31;56185;48.526;9.044;2023-07-09T07:49:25;24.57;56.54
69084;SHT31;56185;48.526;9.044;2023-07-09T07:51:50;24.71;55.72
69084;SHT31;56185;48.526;9.044;2023-07-09T07:54:15;24.88;54.43
69084;SHT31;56185;48.526;9.044;2023-07-09T07:56:43;24.92;55.39
69084;SHT31;56185;48.526;9.044;2023-07-09T07:59:09;25.11;54.20
69084;SHT31;56185;48.526;9.044;2023-07-09T08:01:34;25.12;54.54
69084;SHT31;56185;48.526;9.044;2023-07-09T08:04:00;25.21;54.85
69084;SHT31;56185;48.526;9.044;2023-07-09T08:06:26;25.22;55.22
69084;SHT31;56185;48.526;9.044;2023-07-09T08:08:51;25.32;55.31
69084;SHT31;56185;48.526;9.044;2023-07-09T08:11:16;25.48;54.75
69084;SHT31;56185;48.526;9.044;2023-07-09T08:13:41;25.62;54.48
69084;SHT31;56185;48.526;9.044;2023-07-09T08:16:07;25.76;52.89
69084;SHT31;56185;48.526;9.044;2023-07-09T08:18:33;25.90;52.75
69084;SHT31;56185;48.526;9.044;2023-07-09T08:21:01;26.10;52.73
69084;SHT31;56185;48.526;9.044;2023-07-09T08:23:26;26.23;52.27
69084;SHT31;56185;48.526;9.044;2023-07-09T08:25:56;26.35;51.06
69084;SHT31;56185;48.526;9.044;2023-07-09T08:28:22;26.41;51.56
69084;SHT31;56185;48.526;9.044;2023-07-09T08:30:47;26.55;50.87
69084;SHT31;56185;48.526;9.044;2023-07-09T08:33:13;26.72;49.16
69084;SHT31;56185;48.526;9.044;2023-07-09T08:35:38;26.81;49.27
69084;SHT31;56185;48.526;9.044;2023-07-09T08:38:06;26.91;49.13
69084;SHT31;56185;48.526;9.044;2023-07-09T08:40:32;27.05;48.38
69084;SHT31;56185;48.526;9.044;2023-07-09T08:43:15;27.27;47.50
69084;SHT31;56185;48.526;9.044;2023-07-09T08:49:16;27.58;46.87
69084;SHT31;56185;48.526;9.044;2023-07-09T08:51:43;27.73;46.95
69084;SHT31;56185;48.526;9.044;2023-07-09T08:54:22;27.81;43.80
69084;SHT31;56185;48.526;9.044;2023-07-09T08:56:50;27.74;43.16
69084;SHT31;56185;48.526;9.044;2023-07-09T08:59:17;27.81;42.84
69084;SHT31;56185;48.526;9.044;2023-07-09T09:01:50;27.84;45.23
69084;SHT31;56185;48.526;9.044;2023-07-09T09:04:26;28.06;44.58
69084;SHT31;56185;48.526;9.044;2023-07-09T09:09:41;28.38;42.64
69084;SHT31;56185;48.526;9.044;2023-07-09T09:12:21;28.56;43.19
69084;SHT31;56185;48.526;9.044;2023-07-09T09:14:59;28.64;41.02
69084;SHT31;56185;48.526;9.044;2023-07-09T09:17:27;28.71;42.25
69084;SHT31;56185;48.526;9.044;2023-07-09T09:19:57;28.89;40.45
69084;SHT31;56185;48.526;9.044;2023-07-09T09:22:29;29.00;41.22
69084;SHT31;56185;48.526;9.044;2023-07-09T09:27:38;29.11;40.78
69084;SHT31;56185;48.526;9.044;2023-07-09T09:30:05;29.22;39.25
69084;SHT31;56185;48.526;9.044;2023-07-09T09:32:42;29.37;40.37
69084;SHT31;56185;48.526;9.044;2023-07-09T09:35:17;29.58;39.44
69084;SHT31;56185;48.526;9.044;2023-07-09T09:38:01;29.57;38.88
69084;SHT31;56185;48.526;9.044;2023-07-09T09:40:29;29.59;38.65
69084;SHT31;56185;48.526;9.044;2023-07-09T09:42:58;29.55;38.55
69084;SHT31;56185;48.526;9.044;2023-07-09T09:45:38;29.65;39.24
69084;SHT31;56185;48.526;9.044;2023-07-09T09:48:13;29.72;38.04
69084;SHT31;56185;48.526;9.044;2023-07-09T09:50:40;29.86;38.30
69084;SHT31;56185;48.526;9.044;2023-07-09T09:53:07;29.86;38.34
69084;SHT31;56185;48.526;9.044;2023-07-09T09:55:33;29.97;38.20
69084;SHT31;56185;48.526;9.044;2023-07-09T09:57:59;30.03;38.18
69084;SHT31;56185;48.526;9.044;2023-07-09T10:00:26;30.10;37.45
69084;SHT31;56185;48.526;9.044;2023-07-09T10:02:59;30.21;37.88
69084;SHT31;56185;48.526;9.044;2023-07-09T10:05:43;30.33;36.76
69084;SHT31;56185;48.526;9.044;2023-07-09T10:08:38;30.34;37.68
69084;SHT31;56185;48.526;9.044;2023-07-09T10:11:20;30.57;36.08
69084;SHT31;56185;48.526;9.044;2023-07-09T10:13:47;30.56;37.77
69084;SHT31;56185;48.526;9.044;2023-07-09T10:16:28;30.64;37.22
69084;SHT31;56185;48.526;9.044;2023-07-09T10:21:57;30.82;36.77
69084;SHT31;56185;48.526;9.044;2023-07-09T10:27:13;30.99;37.01
69084;SHT31;56185;48.526;9.044;2023-07-09T10:38:47;31.08;36.66
69084;SHT31;56185;48.526;9.044;2023-07-09T10:41:16;31.22;36.63
69084;SHT31;56185;48.526;9.044;2023-07-09T10:43:47;31.25;35.79
69084;SHT31;56185;48.526;9.044;2023-07-09T10:46:20;31.40;36.35
69084;SHT31;56185;48.526;9.044;2023-07-09T10:48:51;31.57;35.57
69084;SHT31;56185;48.526;9.044;2023-07-09T10:51:24;31.73;35.63
69084;SHT31;56185;48.526;9.044;2023-07-09T10:53:58;31.80;35.03
69084;SHT31;56185;48.526;9.044;2023-07-09T10:56:30;31.91;34.76
69084;SHT31;56185;48.526;9.044;2023-07-09T10:59:20;32.03;34.12
69084;SHT31;56185;48.526;9.044;2023-07-09T11:01:51;32.18;35.08
69084;SHT31;56185;48.526;9.044;2023-07-09T11:04:33;32.28;34.79
69084;SHT31;56185;48.526;9.044;2023-07-09T11:07:04;32.25;34.24
69084;SHT31;56185;48.526;9.044;2023-07-09T11:09:37;32.24;35.48
69084;SHT31;56185;48.526;9.044;2023-07-09T11:12:11;32.36;34.18
69084;SHT31;56185;48.526;9.044;2023-07-09T11:14:59;32.52;33.51
69084;SHT31;56185;48.526;9.044;2023-07-09T11:17:26;32.62;33.86
69084;SHT31;56185;48.526;9.044;2023-07-09T11:19:55;32.76;33.53
69084;SHT31;56185;48.526;9.044;2023-07-09T11:22:38;32.89;31.74
69084;SHT31;56185;48.526;9.044;2023-07-09T11:25:10;32.84;33.43
69084;SHT31;56185;48.526;9.044;2023-07-09T11:27:50;32.96;33.44
69084;SHT31;56185;48.526;9.044;2023-07-09T11:30:21;32.96;31.80
69084;SHT31;56185;48.526;9.044;2023-07-09T11:32:47;33.04;32.18
69084;SHT31;56185;48.526;9.044;2023-07-09T11:35:21;33.04;31.77
69084;SHT31;56185;48.526;9.044;2023-07-09T11:37:47;33.11;32.76
69084;SHT31;56185;48.526;9.044;2023-07-09T11:40:13;33.23;32.19
69084;SHT31;56185;48.526;9.044;2023-07-09T11:42:56;33.14;32.15
69084;SHT31;56185;48.526;9.044;2023-07-09T11:45:27;33.31;31.95
69084;SHT31;56185;48.526;9.044;2023-07-09T11:48:20;33.33;31.97
69084;SHT31;56185;48.526;9.044;2023-07-09T11:50:50;33.54;29.48
69084;SHT31;56185;48.526;9.044;2023-07-09T11:53:35;33.57;31.50
69084;SHT31;56185;48.526;9.044;2023-07-09T11:56:03;33.64;30.19
69084;SHT31;56185;48.526;9.044;2023-07-09T11:58:29;33.78;30.09
69084;SHT31;56185;48.526;9.044;2023-07-09T12:00:56;33.89;30.17
69084;SHT31;56185;48.526;9.044;2023-07-09T12:03:25;34.06;29.27
69084;SHT31;56185;48.526;9.044;2023-07-09T12:05:59;34.15;29.53
69084;SHT31;56185;48.526;9.044;2023-07-09T12:08:36;34.25;29.76
69084;SHT31;56185;48.526;9.044;2023-07-09T12:11:01;34.28;28.28
69084;SHT31;56185;48.526;9.044;2023-07-09T12:13:27;34.31;28.72
69084;SHT31;56185;48.526;9.044;2023-07-09T12:15:52;34.35;26.79
69084;SHT31;56185;48.526;9.044;2023-07-09T12:18:17;34.33;27.97
69084;SHT31;56185;48.526;9.044;2023-07-09T12:20:52;34.37;27.02
69084;SHT31;56185;48.526;9.044;2023-07-09T12:23:32;34.23;25.74
69084;SHT31;56185;48.526;9.044;2023-07-09T12:26:02;34.32;25.55
69084;SHT31;56185;48.526;9.044;2023-07-09T12:28:28;34.50;25.15
69084;SHT31;56185;48.526;9.044;2023-07-09T12:30:54;34.49;25.95
69084;SHT31;56185;48.526;9.044;2023-07-09T12:33:25;34.52;27.82
69084;SHT31;56185;48.526;9.044;2023-07-09T12:35:59;34.40;26.17
69084;SHT31;56185;48.526;9.044;2023-07-09T12:38:28;34.31;26.50
69084;SHT31;56185;48.526;9.044;2023-07-09T12:40:55;34.39;27.25
69084;SHT31;56185;48.526;9.044;2023-07-09T12:43:34;34.57;25.64
69084;SHT31;56185;48.526;9.044;2023-07-09T12:45:59;34.70;26.35
69084;SHT31;56185;48.526;9.044;2023-07-09T12:48:27;34.79;25.59
69084;SHT31;56185;48.526;9.044;2023-07-09T12:50:57;34.76;23.91
69084;SHT31;56185;48.526;9.044;2023-07-09T12:53:24;34.94;25.21
69084;SHT31;56185;48.526;9.044;2023-07-09T12:55:50;35.07;24.30
69084;SHT31;56185;48.526;9.044;2023-07-09T12:58:28;35.24;24.30
69084;SHT31;56185;48.526;9.044;2023-07-09T13:00:54;35.25;23.67
69084;SHT31;56185;48.526;9.044;2023-07-09T13:03:31;35.25;24.97
69084;SHT31;56185;48.526;9.044;2023-07-09T13:06:02;35.30;25.50
69084;SHT31;56185;48.526;9.044;2023-07-09T13:08:30;35.38;25.00
69084;SHT31;56185;48.526;9.044;2023-07-09T13:10:56;35.45;25.57
69084;SHT31;56185;48.526;9.044;2023-07-09T13:13:22;35.54;25.14
69084;SHT31;56185;48.526;9.044;2023-07-09T13:15:54;35.58;24.62
69084;SHT31;56185;48.526;9.044;2023-07-09T13:18:20;35.66;25.60
69084;SHT31;56185;48.526;9.044;2023-07-09T13:20:46;35.62;24.54
69084;SHT31;56185;48.526;9.044;2023-07-09T13:23:14;35.62;24.54
69084;SHT31;56185;48.526;9.044;2023-07-09T13:25:40;35.61;24.40
69084;SHT31;56185;48.526;9.044;2023-07-09T13:28:11;35.69;24.63
69084;SHT31;56185;48.526;9.044;2023-07-09T13:30:39;35.72;23.89
69084;SHT31;56185;48.526;9.044;2023-07-09T13:33:08;35.52;25.58
69084;SHT31;56185;48.526;9.044;2023-07-09T13:35:33;35.58;25.48
69084;SHT31;56185;48.526;9.044;2023-07-09T13:37:59;35.69;24.20
69084;SHT31;56185;48.526;9.044;2023-07-09T13:40:25;35.63;24.06
69084;SHT31;56185;48.526;9.044;2023-07-09T13:42:50;35.83;23.89
69084;SHT31;56185;48.526;9.044;2023-07-09T13:45:23;36.04;24.81
69084;SHT31;56185;48.526;9.044;2023-07-09T13:48:18;36.17;22.55
69084;SHT31;56185;48.526;9.044;2023-07-09T13:50:49;36.22;23.62
69084;SHT31;56185;48.526;9.044;2023-07-09T13:53:24;36.29;23.72
69084;SHT31;56185;48.526;9.044;2023-07-09T13:56:08;36.39;23.56
69084;SHT31;56185;48.526;9.044;2023-07-09T13:58:36;36.30;23.42
69084;SHT31;56185;48.526;9.044;2023-07-09T14:01:22;36.40;23.59
69084;SHT31;56185;48.526;9.044;2023-07-09T14:04:16;36.52;24.27
69084;SHT31;56185;48.526;9.044;2023-07-09T14:06:51;36.61;24.11
69084;SHT31;56185;48.526;9.044;2023-07-09T14:12:19;36.81;22.70
69084;SHT31;56185;48.526;9.044;2023-07-09T14:18:05;36.95;22.97
69084;SHT31;56185;48.526;9.044;2023-07-09T14:20:36;36.95;23.00
69084;SHT31;56185;48.526;9.044;2023-07-09T14:23:14;37.02;23.93
69084;SHT31;56185;48.526;9.044;2023-07-09T14:25:43;37.11;23.24
69084;SHT31;56185;48.526;9.044;2023-07-09T14:28:21;37.17;23.68
69084;SHT31;56185;48.526;9.044;2023-07-09T14:30:48;37.23;23.86
69084;SHT31;56185;48.526;9.044;2023-07-09T14:33:17;37.22;22.83
69084;SHT31;56185;48.526;9.044;2023-07-09T14:35:43;37.29;23.15
69084;SHT31;56185;48.526;9.044;2023-07-09T14:38:20;37.17;23.43
69084;SHT31;56185;48.526;9.044;2023-07-09T14:40:47;37.11;23.41
69084;SHT31;56185;48.526;9.044;2023-07-09T14:43:13;36.99;22.74
69084;SHT31;56185;48.526;9.044;2023-07-09T14:45:39;37.08;22.31
69084;SHT31;56185;48.526;9.044;2023-07-09T14:48:18;36.94;22.67
69084;SHT31;56185;48.526;9.044;2023-07-09T14:50:44;36.77;22.96
69084;SHT31;56185;48.526;9.044;2023-07-09T14:53:21;36.63;23.08
69084;SHT31;56185;48.526;9.044;2023-07-09T14:55:46;36.52;24.07
69084;SHT31;56185;48.526;9.044;2023-07-09T14:58:20;36.48;24.01
69084;SHT31;56185;48.526;9.044;2023-07-09T15:00:46;36.27;24.18
69084;SHT31;56185;48.526;9.044;2023-07-09T15:03:21;36.17;24.43
69084;SHT31;56185;48.526;9.044;2023-07-09T15:05:47;36.00;24.01
69084;SHT31;56185;48.526;9.044;2023-07-09T15:08:14;36.00;23.87
69084;SHT31;56185;48.526;9.044;2023-07-09T15:10:40;36.06;24.42
69084;SHT31;56185;48.526;9.044;2023-07-09T15:13:14;36.12;24.23
69084;SHT31;56185;48.526;9.044;2023-07-09T15:15:40;36.26;24.29
69084;SHT31;56185;48.526;9.044;2023-07-09T15:18:11;36.33;23.77
69084;SHT31;56185;48.526;9.044;2023-07-09T15:20:36;36.31;22.98
69084;SHT31;56185;48.526;9.044;2023-07-09T15:23:02;36.41;23.40
69084;SHT31;56185;48.526;9.044;2023-07-09T15:25:29;36.57;23.78
69084;SHT31;56185;48.526;9.044;2023-07-09T15:27:54;36.70;22.99
69084;SHT31;56185;48.526;9.044;2023-07-09T15:30:30;36.72;22.55
69084;SHT31;56185;48.526;9.044;2023-07-09T15:32:57;36.82;23.64
69084;SHT31;56185;48.526;9.044;2023-07-09T15:35:25;36.91;22.23
69084;SHT31;56185;48.526;9.044;2023-07-09T15:37:51;36.80;23.01
69084;SHT31;56185;48.526;9.044;2023-07-09T15:42:42;36.80;23.72
69084;SHT31;56185;48.526;9.044;2023-07-09T15:45:08;36.78;23.50
69084;SHT31;56185;48.526;9.044;2023-07-09T15:47:38;36.68;23.58
69084;SHT31;56185;48.526;9.044;2023-07-09T15:50:13;36.57;23.37
69084;SHT31;56185;48.526;9.044;2023-07-09T15:52:39;36.52;24.02
69084;SHT31;56185;48.526;9.044;2023-07-09T15:55:07;36.37;23.67
69084;SHT31;56185;48.526;9.044;2023-07-09T15:57:32;36.24;24.41
69084;SHT31;56185;48.526;9.044;2023-07-09T15:59:57;36.19;24.23
69084;SHT31;56185;48.526;9.044;2023-07-09T16:02:23;36.02;23.90
69084;SHT31;56185;48.526;9.044;2023-07-09T16:04:48;35.94;23.94
69084;SHT31;56185;48.526;9.044;2023-07-09T16:07:13;35.82;24.39
69084;SHT31;56185;48.526;9.044;2023-07-09T16:09:38;35.72;24.24
69084;SHT31;56185;48.526;9.044;2023-07-09T16:12:04;35.69;25.76